createdAt,value
2019-02-06T00:01:28.362Z,23.70
2019-02-06T00:04:20.521Z,23.70
2019-02-06T00:07:12.427Z,23.70
2019-02-06T00:10:05.546Z,23.70
2019-02-06T00:12:57.666Z,23.70
2019-02-06T00:15:49.499Z,23.70
2019-02-06T00:18:41.383Z,23.70
2019-02-06T00:21:33.548Z,23.60
2019-02-06T00:24:25.730Z,23.70
2019-02-06T00:27:18.528Z,23.70
2019-02-06T00:30:11.882Z,23.70
2019-02-06T00:33:04.131Z,23.70
2019-02-06T00:35:56.789Z,23.70
2019-02-06T00:38:49.096Z,23.70
2019-02-06T00:41:41.999Z,23.70
2019-02-06T00:44:35.126Z,23.70
2019-02-06T00:47:27.623Z,23.70
2019-02-06T00:50:19.990Z,23.70
2019-02-06T00:53:12.419Z,23.70
2019-02-06T00:56:05.682Z,23.70
2019-02-06T00:58:58.232Z,23.70
2019-02-06T01:01:50.522Z,23.70
2019-02-06T01:04:44.441Z,23.60
2019-02-06T01:07:37.450Z,23.60
2019-02-06T01:10:29.689Z,23.70
2019-02-06T01:13:22.437Z,23.60
2019-02-06T01:16:14.699Z,23.70
2019-02-06T01:19:07.886Z,23.70
2019-02-06T01:21:59.996Z,23.70
2019-02-06T01:24:52.145Z,23.70
2019-02-06T01:27:45.000Z,23.80
2019-02-06T01:31:00.727Z,23.70
2019-02-06T01:33:52.920Z,23.70
2019-02-06T01:36:46.049Z,23.70
2019-02-06T01:39:38.485Z,23.50
2019-02-06T01:42:32.860Z,23.30
2019-02-06T01:45:25.220Z,23.30
2019-02-06T01:48:18.326Z,23.40
2019-02-06T01:51:10.961Z,23.40
2019-02-06T01:54:04.036Z,23.40
2019-02-06T01:56:56.466Z,23.30
2019-02-06T01:59:49.828Z,23.20
2019-02-06T02:02:42.406Z,23.20
2019-02-06T02:05:37.852Z,23.20
2019-02-06T02:08:29.887Z,23.10
2019-02-06T02:11:23.509Z,23.10
2019-02-06T02:14:16.053Z,23.10
2019-02-06T02:17:09.617Z,23.10
2019-02-06T02:20:02.109Z,23.00
2019-02-06T02:22:56.393Z,23.00
2019-02-06T02:25:49.206Z,23.00
2019-02-06T02:28:41.941Z,22.90
2019-02-06T02:31:34.903Z,22.80
2019-02-06T02:34:28.491Z,22.80
2019-02-06T02:37:20.465Z,22.90
2019-02-06T02:40:13.020Z,22.90
2019-02-06T02:43:06.565Z,22.90
2019-02-06T02:45:59.141Z,22.80
2019-02-06T02:48:51.647Z,22.90
2019-02-06T02:51:44.580Z,22.90
2019-02-06T02:54:37.170Z,23.00
2019-02-06T02:57:30.169Z,23.00
2019-02-06T03:00:24.537Z,23.10
2019-02-06T03:03:34.125Z,23.10
2019-02-06T03:06:28.577Z,23.20
2019-02-06T03:09:21.712Z,23.20
2019-02-06T03:12:14.367Z,23.20
2019-02-06T03:15:07.163Z,23.20
2019-02-06T03:17:59.425Z,23.20
2019-02-06T03:20:51.395Z,23.30
2019-02-06T03:23:43.781Z,23.20
2019-02-06T03:26:35.669Z,23.30
2019-02-06T03:29:28.693Z,23.20
2019-02-06T03:32:20.612Z,23.20
2019-02-06T03:35:12.913Z,23.20
2019-02-06T03:38:05.352Z,23.20
2019-02-06T03:40:57.522Z,23.20
2019-02-06T03:43:49.717Z,23.20
2019-02-06T03:46:41.795Z,23.20
2019-02-06T03:49:33.573Z,23.20
2019-02-06T03:52:25.345Z,23.20
2019-02-06T03:55:17.944Z,23.10
2019-02-06T03:58:09.980Z,23.10
2019-02-06T04:01:03.016Z,23.20
2019-02-06T04:03:55.003Z,23.20
2019-02-06T04:06:54.939Z,23.20
2019-02-06T04:09:40.403Z,23.20
2019-02-06T04:12:32.524Z,23.20
2019-02-06T04:15:24.271Z,23.20
2019-02-06T04:18:16.210Z,23.30
2019-02-06T04:21:08.407Z,23.30
2019-02-06T04:24:00.203Z,23.40
2019-02-06T04:26:52.708Z,23.40
2019-02-06T04:29:44.548Z,23.40
2019-02-06T04:32:36.609Z,23.40
2019-02-06T04:35:29.078Z,23.40
2019-02-06T04:38:21.173Z,23.40
2019-02-06T04:41:13.455Z,23.40
2019-02-06T04:44:06.145Z,23.40
2019-02-06T04:46:58.986Z,23.50
2019-02-06T04:49:51.426Z,23.50
2019-02-06T04:52:44.386Z,23.50
2019-02-06T04:55:36.896Z,23.50
2019-02-06T04:58:29.357Z,23.50
2019-02-06T05:01:22.459Z,23.60
2019-02-06T05:04:17.971Z,23.60
2019-02-06T05:07:18.805Z,23.60
2019-02-06T05:10:03.667Z,23.70
2019-02-06T05:12:55.918Z,23.70
2019-02-06T05:15:47.866Z,23.80
2019-02-06T05:18:41.895Z,23.80
2019-02-06T05:21:36.235Z,23.80
2019-02-06T05:24:29.036Z,23.90
2019-02-06T05:27:27.036Z,23.90
2019-02-06T05:30:24.780Z,23.90
2019-02-06T05:33:20.638Z,24.00
2019-02-06T05:36:22.035Z,24.00
2019-02-06T05:39:16.028Z,24.00
2019-02-06T05:42:11.313Z,24.00
2019-02-06T05:45:05.849Z,24.00
2019-02-06T05:47:59.702Z,24.00
2019-02-06T05:50:52.753Z,24.10
2019-02-06T05:53:45.049Z,24.10
2019-02-06T05:56:39.255Z,24.10
2019-02-06T05:59:31.913Z,24.10
2019-02-06T06:02:24.892Z,24.20
2019-02-06T06:05:19.718Z,24.20
2019-02-06T06:08:12.885Z,24.20
2019-02-06T06:11:05.120Z,24.30
2019-02-06T06:13:58.585Z,24.30
2019-02-06T06:16:51.232Z,24.30
2019-02-06T06:19:43.848Z,24.40
2019-02-06T06:22:37.341Z,24.40
2019-02-06T06:25:30.031Z,24.40
2019-02-06T06:28:22.439Z,24.50
2019-02-06T06:31:15.579Z,24.50
2019-02-06T06:34:09.567Z,24.50
2019-02-06T06:37:03.319Z,24.50
2019-02-06T06:39:55.737Z,24.50
2019-02-06T06:42:47.778Z,24.60
2019-02-06T06:45:39.718Z,24.60
2019-02-06T06:48:33.722Z,24.60
2019-02-06T06:51:26.338Z,24.50
2019-02-06T06:54:18.144Z,24.60
2019-02-06T06:57:12.469Z,24.60
2019-02-06T07:00:05.310Z,24.60
2019-02-06T07:02:58.112Z,24.60
2019-02-06T07:05:50.607Z,24.60
2019-02-06T07:08:45.451Z,24.70
2019-02-06T07:11:42.030Z,24.70
2019-02-06T07:14:34.928Z,24.70
2019-02-06T07:17:27.605Z,24.70
2019-02-06T07:20:24.275Z,24.70
2019-02-06T07:23:17.215Z,24.70
2019-02-06T07:26:09.709Z,24.70
2019-02-06T07:29:13.329Z,24.70
2019-02-06T07:32:06.013Z,24.80
2019-02-06T07:34:59.356Z,24.80
2019-02-06T07:37:52.555Z,24.90
2019-02-06T07:40:46.579Z,24.80
2019-02-06T07:43:39.513Z,24.80
2019-02-06T07:46:32.625Z,24.80
2019-02-06T07:49:26.941Z,24.80
2019-02-06T07:52:19.217Z,24.80
2019-02-06T07:55:11.792Z,24.80
2019-02-06T07:58:04.417Z,24.80
2019-02-06T08:00:57.676Z,24.80
2019-02-06T08:03:50.965Z,24.90
2019-02-06T08:06:43.893Z,25.00
2019-02-06T08:09:39.677Z,25.00
2019-02-06T08:12:33.434Z,25.00
2019-02-06T08:15:25.992Z,25.10
2019-02-06T08:18:18.728Z,25.00
2019-02-06T08:21:11.990Z,25.10
2019-02-06T08:24:05.160Z,25.10
2019-02-06T08:26:58.983Z,25.10
2019-02-06T08:29:51.742Z,25.10
2019-02-06T08:32:48.041Z,25.10
2019-02-06T08:35:42.920Z,25.10
2019-02-06T08:38:47.042Z,25.20
2019-02-06T08:41:31.998Z,25.20
2019-02-06T08:44:32.830Z,25.20
2019-02-06T08:47:26.627Z,25.20
2019-02-06T08:50:20.138Z,25.20
2019-02-06T08:53:14.033Z,25.20
2019-02-06T08:56:09.481Z,25.20
2019-02-06T08:59:04.341Z,25.20
2019-02-06T09:01:59.088Z,25.20
2019-02-06T09:04:55.886Z,25.20
2019-02-06T09:07:45.781Z,25.20
2019-02-06T09:10:44.552Z,25.20
2019-02-06T09:13:37.500Z,25.20
2019-02-06T09:16:33.106Z,25.20
2019-02-06T09:19:25.859Z,25.20
2019-02-06T09:22:18.566Z,25.20
2019-02-06T09:25:12.079Z,25.20
2019-02-06T09:28:05.670Z,25.10
2019-02-06T09:30:58.999Z,25.10
2019-02-06T09:33:54.993Z,25.10
2019-02-06T09:36:48.578Z,25.10
2019-02-06T09:39:42.629Z,25.10
2019-02-06T09:42:35.457Z,25.10
2019-02-06T09:45:28.386Z,25.10
2019-02-06T09:48:22.421Z,25.10
2019-02-06T09:51:16.097Z,25.10
2019-02-06T09:54:11.616Z,25.10
2019-02-06T09:57:05.825Z,25.10
2019-02-06T09:59:59.384Z,25.00
2019-02-06T10:02:52.958Z,25.00
2019-02-06T10:05:46.627Z,25.10
2019-02-06T10:08:41.127Z,25.00
2019-02-06T10:11:35.001Z,25.00
2019-02-06T10:14:27.899Z,25.00
2019-02-06T10:17:22.643Z,25.10
2019-02-06T10:20:19.457Z,25.10
2019-02-06T10:23:13.101Z,25.10
2019-02-06T10:26:06.232Z,25.20
2019-02-06T10:29:00.228Z,25.20
2019-02-06T10:31:53.007Z,25.20
2019-02-06T10:34:46.463Z,25.20
2019-02-06T10:37:40.193Z,25.20
2019-02-06T10:40:33.486Z,25.30
2019-02-06T10:43:32.213Z,25.30
2019-02-06T10:46:20.192Z,25.30
2019-02-06T10:49:13.401Z,25.30
2019-02-06T10:52:06.822Z,25.30
2019-02-06T10:54:59.973Z,25.30
2019-02-06T10:57:57.383Z,25.30
2019-02-06T11:00:58.403Z,25.30
2019-02-06T11:03:51.279Z,25.30
2019-02-06T11:06:44.605Z,25.30
2019-02-06T11:09:46.003Z,25.30
2019-02-06T11:12:31.909Z,25.30
2019-02-06T11:15:27.693Z,25.30
2019-02-06T11:18:22.187Z,25.30
2019-02-06T11:21:15.904Z,25.30
2019-02-06T11:24:09.305Z,25.30
2019-02-06T11:27:03.564Z,25.30
2019-02-06T11:29:56.744Z,25.30
2019-02-06T11:32:50.109Z,25.30
2019-02-06T11:35:43.227Z,25.20
2019-02-06T11:38:37.411Z,25.20
2019-02-06T11:41:30.755Z,25.20
2019-02-06T11:44:23.680Z,25.20
2019-02-06T11:47:16.155Z,25.20
2019-02-06T11:50:12.541Z,25.10
2019-02-06T11:53:04.870Z,25.10
2019-02-06T11:55:58.027Z,25.10
2019-02-06T11:58:52.539Z,25.10
2019-02-06T12:01:50.823Z,25.10
2019-02-06T12:04:45.104Z,25.10
2019-02-06T12:07:38.730Z,25.10
2019-02-06T12:10:33.217Z,25.10
2019-02-06T12:13:28.825Z,25.10
2019-02-06T12:16:24.254Z,25.10
2019-02-06T12:19:19.995Z,25.10
2019-02-06T12:22:14.185Z,25.10
2019-02-06T12:25:07.395Z,25.10
2019-02-06T12:28:00.575Z,25.10
2019-02-06T12:30:56.255Z,25.10
2019-02-06T12:34:01.704Z,25.00
2019-02-06T12:36:57.387Z,25.00
2019-02-06T12:39:54.115Z,25.00
2019-02-06T12:42:47.511Z,25.00
2019-02-06T12:45:40.419Z,25.00
2019-02-06T12:48:33.498Z,25.10
2019-02-06T12:51:26.658Z,25.00
2019-02-06T12:54:19.604Z,25.00
2019-02-06T12:57:12.520Z,25.00
2019-02-06T13:00:05.229Z,25.00
2019-02-06T13:03:01.015Z,25.00
2019-02-06T13:05:53.634Z,25.00
2019-02-06T13:08:46.267Z,25.00
2019-02-06T13:11:39.132Z,25.00
2019-02-06T13:14:32.740Z,25.00
2019-02-06T13:17:25.746Z,25.10
2019-02-06T13:20:21.146Z,25.10
2019-02-06T13:23:15.657Z,25.10
2019-02-06T13:26:08.704Z,25.10
2019-02-06T13:29:02.135Z,25.10
2019-02-06T13:31:58.782Z,25.10
2019-02-06T13:34:51.955Z,25.10
2019-02-06T13:37:46.753Z,25.10
2019-02-06T13:40:45.646Z,25.10
2019-02-06T13:43:35.483Z,25.10
2019-02-06T13:46:28.508Z,25.10
2019-02-06T13:49:21.289Z,25.10
2019-02-06T13:52:14.398Z,25.10
2019-02-06T13:55:08.312Z,25.20
2019-02-06T13:58:00.930Z,25.20
2019-02-06T14:00:53.635Z,25.10
2019-02-06T14:03:46.318Z,25.10
2019-02-06T14:06:39.831Z,25.10
2019-02-06T14:09:33.036Z,25.10
2019-02-06T14:12:25.924Z,25.10
2019-02-06T14:15:20.456Z,25.10
2019-02-06T14:18:16.822Z,25.00
2019-02-06T14:21:16.948Z,25.00
2019-02-06T14:24:28.320Z,25.00
2019-02-06T14:27:38.866Z,25.00
2019-02-06T14:31:04.822Z,25.00
2019-02-06T14:34:22.813Z,25.00
2019-02-06T14:37:28.199Z,25.00
2019-02-06T14:40:26.994Z,24.90
2019-02-06T14:43:31.999Z,24.90
2019-02-06T14:47:01.129Z,24.90
2019-02-06T14:49:59.923Z,24.90
2019-02-06T14:52:56.890Z,24.80
2019-02-06T14:56:00.590Z,24.80
2019-02-06T14:59:15.049Z,24.80
2019-02-06T15:02:23.648Z,24.80
2019-02-06T15:05:25.994Z,24.80
2019-02-06T15:08:39.022Z,24.80
2019-02-06T15:11:39.284Z,24.70
2019-02-06T15:14:37.760Z,24.70
2019-02-06T15:17:54.166Z,24.70
2019-02-06T15:21:00.326Z,24.70
2019-02-06T15:24:11.095Z,24.70
2019-02-06T15:27:20.635Z,24.70
2019-02-06T15:30:34.102Z,24.70
2019-02-06T15:33:32.334Z,24.70
2019-02-06T15:36:52.158Z,24.70
2019-02-06T15:40:01.830Z,24.60
2019-02-06T15:43:03.418Z,24.60
2019-02-06T15:46:12.991Z,24.60
2019-02-06T15:49:09.939Z,24.60
2019-02-06T15:52:29.059Z,24.60
2019-02-06T15:55:55.138Z,24.60
2019-02-06T15:58:55.466Z,24.60
2019-02-06T16:02:00.979Z,24.60
2019-02-06T16:05:38.573Z,24.50
2019-02-06T16:08:47.418Z,24.50
2019-02-06T16:11:58.220Z,24.50
2019-02-06T16:15:12.494Z,24.60
2019-02-06T16:18:32.328Z,24.50
2019-02-06T16:21:35.985Z,24.60
2019-02-06T16:24:46.828Z,24.50
2019-02-06T16:28:01.519Z,24.50
2019-02-06T16:31:10.726Z,24.50
2019-02-06T16:34:21.596Z,24.60
2019-02-06T16:37:27.852Z,24.60
2019-02-06T16:40:25.326Z,24.60
2019-02-06T16:43:29.751Z,24.60
2019-02-06T16:46:40.430Z,24.60
2019-02-06T16:49:42.578Z,24.60
2019-02-06T16:52:56.407Z,24.60
2019-02-06T16:56:09.951Z,24.60
2019-02-06T16:59:38.852Z,24.60
2019-02-06T17:02:43.808Z,24.60
2019-02-06T17:05:50.924Z,24.60
2019-02-06T17:09:00.446Z,24.60
2019-02-06T17:12:20.494Z,24.60
2019-02-06T17:15:30.565Z,24.60
2019-02-06T17:18:34.116Z,24.60
2019-02-06T17:21:57.632Z,24.60
2019-02-06T17:25:08.425Z,24.60
2019-02-06T17:28:11.528Z,24.60
2019-02-06T17:31:37.880Z,24.60
2019-02-06T17:34:51.101Z,24.60
2019-02-06T17:38:01.758Z,24.60
2019-02-06T17:41:15.582Z,24.60
2019-02-06T17:44:34.511Z,24.60
2019-02-06T17:47:32.367Z,24.60
2019-02-06T17:50:41.102Z,24.60
2019-02-06T17:53:48.337Z,24.60
2019-02-06T17:56:40.937Z,24.60
2019-02-06T17:59:34.990Z,24.60
2019-02-06T18:02:27.328Z,24.60
2019-02-06T18:05:19.147Z,24.60
2019-02-06T18:08:11.807Z,24.60
2019-02-06T18:11:03.690Z,24.60
2019-02-06T18:13:56.371Z,24.50
2019-02-06T18:16:48.813Z,24.60
2019-02-06T18:19:41.627Z,24.60
2019-02-06T18:22:34.756Z,24.60
2019-02-06T18:25:26.888Z,24.60
2019-02-06T18:28:18.911Z,24.60
2019-02-06T18:31:11.088Z,24.60
2019-02-06T18:34:04.699Z,24.60
2019-02-06T18:36:58.249Z,24.60
2019-02-06T18:39:50.849Z,24.60
2019-02-06T18:42:43.314Z,24.50
2019-02-06T18:45:35.490Z,24.50
2019-02-06T18:48:27.980Z,24.50
2019-02-06T18:51:20.231Z,24.50
2019-02-06T18:54:12.359Z,24.50
2019-02-06T18:57:04.338Z,24.50
2019-02-06T18:59:56.377Z,24.50
2019-02-06T19:02:48.316Z,24.50
2019-02-06T19:05:40.179Z,24.50
2019-02-06T19:08:31.935Z,24.50
2019-02-06T19:11:24.678Z,24.50
2019-02-06T19:14:16.871Z,24.50
2019-02-06T19:17:08.977Z,24.50
2019-02-06T19:20:01.202Z,24.50
2019-02-06T19:22:53.432Z,24.50
2019-02-06T19:25:47.331Z,24.50
2019-02-06T19:28:39.625Z,24.50
2019-02-06T19:31:32.700Z,24.50
2019-02-06T19:34:25.173Z,24.50
2019-02-06T19:37:17.422Z,24.50
2019-02-06T19:40:10.297Z,24.50
2019-02-06T19:43:03.557Z,24.50
2019-02-06T19:45:55.674Z,24.50
2019-02-06T19:48:47.823Z,24.50
2019-02-06T19:51:39.736Z,24.50
2019-02-06T19:54:31.788Z,24.50
2019-02-06T19:57:26.060Z,24.50
2019-02-06T20:00:19.933Z,24.50
2019-02-06T20:03:11.936Z,24.50
2019-02-06T20:06:05.639Z,24.50
2019-02-06T20:08:58.371Z,24.50
2019-02-06T20:11:50.406Z,24.50
2019-02-06T20:14:42.286Z,24.50
2019-02-06T20:17:34.056Z,24.40
2019-02-06T20:20:26.130Z,24.40
2019-02-06T20:23:18.442Z,24.40
2019-02-06T20:26:10.568Z,24.40
2019-02-06T20:29:03.099Z,24.40
2019-02-06T20:31:55.429Z,24.40
2019-02-06T20:34:47.838Z,24.40
2019-02-06T20:37:39.606Z,24.40
2019-02-06T20:40:32.478Z,24.40
2019-02-06T20:43:24.348Z,24.40
2019-02-06T20:46:16.363Z,24.50
2019-02-06T20:49:08.202Z,24.40
2019-02-06T20:52:00.324Z,24.40
2019-02-06T20:54:52.163Z,24.50
2019-02-06T20:57:44.028Z,24.40
2019-02-06T21:00:37.311Z,24.50
2019-02-06T21:03:29.511Z,24.40
2019-02-06T21:06:22.827Z,24.40
2019-02-06T21:09:16.505Z,24.50
2019-02-06T21:12:08.324Z,24.40
2019-02-06T21:15:00.173Z,24.40
2019-02-06T21:17:52.154Z,24.40
2019-02-06T21:20:43.990Z,24.40
2019-02-06T21:23:35.719Z,24.40
2019-02-06T21:26:27.696Z,24.40
2019-02-06T21:29:19.527Z,24.40
2019-02-06T21:32:11.656Z,24.40
2019-02-06T21:35:03.616Z,24.40
2019-02-06T21:37:55.721Z,24.40
2019-02-06T21:40:47.802Z,24.40
2019-02-06T21:43:44.223Z,24.40
2019-02-06T21:46:32.436Z,24.40
2019-02-06T21:49:24.476Z,24.40
2019-02-06T21:52:16.297Z,24.40
2019-02-06T21:55:08.910Z,24.40
2019-02-06T21:58:00.915Z,24.40
2019-02-06T22:00:54.011Z,24.40
2019-02-06T22:03:46.161Z,24.40
2019-02-06T22:06:38.181Z,24.40
2019-02-06T22:09:30.235Z,24.40
2019-02-06T22:12:21.998Z,24.40
2019-02-06T22:15:16.696Z,24.40
2019-02-06T22:18:09.498Z,24.40
2019-02-06T22:21:01.240Z,24.40
2019-02-06T22:23:53.230Z,24.40
2019-02-06T22:26:45.505Z,24.40
2019-02-06T22:29:37.238Z,24.40
2019-02-06T22:32:29.236Z,24.40
2019-02-06T22:35:21.223Z,24.40
2019-02-06T22:38:13.236Z,24.30
2019-02-06T22:41:05.228Z,24.40
2019-02-06T22:44:06.302Z,24.30
2019-02-06T22:46:50.580Z,24.30
2019-02-06T22:49:42.445Z,24.30
2019-02-06T22:52:34.796Z,24.30
2019-02-06T22:55:26.996Z,24.30
2019-02-06T22:58:20.645Z,24.40
2019-02-06T23:01:21.946Z,24.40
2019-02-06T23:04:13.205Z,24.40
2019-02-06T23:07:07.125Z,24.30
2019-02-06T23:09:58.445Z,24.30
2019-02-06T23:12:50.295Z,24.30
2019-02-06T23:15:42.280Z,24.30
2019-02-06T23:18:35.238Z,24.30
2019-02-06T23:21:27.362Z,24.30
2019-02-06T23:24:19.169Z,24.30
2019-02-06T23:27:11.324Z,24.20
2019-02-06T23:30:03.412Z,24.20
2019-02-06T23:32:55.853Z,24.20
2019-02-06T23:35:47.942Z,24.20
2019-02-06T23:38:39.855Z,24.10
2019-02-06T23:41:32.039Z,24.20
2019-02-06T23:44:28.940Z,24.20
2019-02-06T23:47:17.087Z,24.20
2019-02-06T23:50:09.384Z,24.20
2019-02-06T23:53:01.767Z,24.20
2019-02-06T23:55:54.101Z,24.10
2019-02-06T23:58:46.324Z,24.20
